VOZ978 YBBN-YSSY
Flight info
| Callsign | VOZ978 |
|---|---|
| Flight time | 1h 11m |
| Altitude | 38000 |
| Route | SANEG H91 IGDAM H652 BOREE |
| Aircraft | B738/M-SDFGHIRWZ/LB1 |
Departure
| Time | 2026-04-22 08:13 |
|---|---|
| Airport | Brisbane International Airport (YBBN) |
Arrival
| Time | 2026-04-22 09:25 |
|---|---|
| Airport | Sydney Kingsford Smith International Airport (YSSY) |
| Time | Latitude | Longitude | Altitude | Speed | Heading |
|---|---|---|---|---|---|
| 2026-04-22 07:28 | -27.38718 | 153.11995 | 22 ft | 0 kts | 335° |
| 2026-04-22 08:03 | -27.38732 | 153.12000 | 22 ft | 4 kts | 356° |
| 2026-04-22 08:03 | -27.38754 | 153.12009 | 20 ft | 3 kts | 316° |
| 2026-04-22 08:03 | -27.38761 | 153.12030 | 23 ft | 3 kts | 259° |
| 2026-04-22 08:04 | -27.38763 | 153.12056 | 22 ft | 3 kts | 308° |
| 2026-04-22 08:04 | -27.38781 | 153.12076 | 23 ft | 3 kts | 319° |
| 2026-04-22 08:04 | -27.38801 | 153.12096 | 24 ft | 3 kts | 319° |
| 2026-04-22 08:04 | -27.38807 | 153.12102 | 23 ft | 0 kts | 319° |
| 2026-04-22 08:09 | -27.38797 | 153.12098 | 20 ft | 6 kts | 350° |
| 2026-04-22 08:09 | -27.38773 | 153.12173 | 20 ft | 16 kts | 104° |
| 2026-04-22 08:09 | -27.38787 | 153.12298 | 20 ft | 16 kts | 58° |
| 2026-04-22 08:10 | -27.38693 | 153.12364 | 22 ft | 17 kts | 27° |
| 2026-04-22 08:10 | -27.38575 | 153.12431 | 20 ft | 21 kts | 26° |
| 2026-04-22 08:10 | -27.38433 | 153.12513 | 21 ft | 25 kts | 27° |
| 2026-04-22 08:10 | -27.38269 | 153.12606 | 21 ft | 28 kts | 26° |
| 2026-04-22 08:11 | -27.38102 | 153.12701 | 20 ft | 23 kts | 27° |
| 2026-04-22 08:11 | -27.37995 | 153.12793 | 20 ft | 17 kts | 78° |
| 2026-04-22 08:11 | -27.38037 | 153.12914 | 22 ft | 16 kts | 117° |
| 2026-04-22 08:11 | -27.38060 | 153.12965 | 21 ft | 0 kts | 117° |
| 2026-04-22 08:12 | -27.38070 | 153.12987 | 20 ft | 11 kts | 117° |
| 2026-04-22 08:12 | -27.38184 | 153.13021 | 23 ft | 31 kts | 208° |
| 2026-04-22 08:13 | -27.38576 | 153.12798 | 23 ft | 95 kts | 206° |
| 2026-04-22 08:13 | -27.39340 | 153.12360 | 20 ft | 148 kts | 207° |
| 2026-04-22 08:13 | -27.40309 | 153.11809 | 412 ft | 159 kts | 204° |
| 2026-04-22 08:13 | -27.41309 | 153.11262 | 950 ft | 165 kts | 202° |
| 2026-04-22 08:14 | -27.42437 | 153.11045 | 1439 ft | 170 kts | 167° |
| 2026-04-22 08:14 | -27.43639 | 153.11546 | 1793 ft | 197 kts | 154° |
| 2026-04-22 08:14 | -27.44933 | 153.12256 | 2160 ft | 219 kts | 153° |
| 2026-04-22 08:14 | -27.46317 | 153.13040 | 2919 ft | 224 kts | 153° |
| 2026-04-22 08:15 | -27.47733 | 153.13846 | 3584 ft | 237 kts | 154° |
| 2026-04-22 08:15 | -27.49289 | 153.14636 | 4261 ft | 250 kts | 166° |
| 2026-04-22 08:15 | -27.51027 | 153.14670 | 5289 ft | 252 kts | 187° |
| 2026-04-22 08:15 | -27.52765 | 153.14279 | 6268 ft | 257 kts | 192° |
| 2026-04-22 08:16 | -27.54528 | 153.13817 | 7193 ft | 263 kts | 192° |
| 2026-04-22 08:16 | -27.56308 | 153.13306 | 8135 ft | 266 kts | 196° |
| 2026-04-22 08:16 | -27.58122 | 153.12599 | 8702 ft | 289 kts | 199° |
| 2026-04-22 08:16 | -27.60123 | 153.11780 | 8969 ft | 321 kts | 199° |
| 2026-04-22 08:17 | -27.62318 | 153.10885 | 9205 ft | 351 kts | 199° |
| 2026-04-22 08:17 | -27.64704 | 153.10025 | 9779 ft | 365 kts | 196° |
| 2026-04-22 08:17 | -27.67161 | 153.09225 | 10705 ft | 369 kts | 195° |
| 2026-04-22 08:17 | -27.69635 | 153.08430 | 11649 ft | 371 kts | 196° |
| 2026-04-22 08:18 | -27.72128 | 153.07621 | 12518 ft | 375 kts | 196° |
| 2026-04-22 08:18 | -27.74622 | 153.06799 | 13354 ft | 379 kts | 197° |
| 2026-04-22 08:18 | -27.77167 | 153.05952 | 14164 ft | 382 kts | 197° |
| 2026-04-22 08:18 | -27.79731 | 153.05095 | 14934 ft | 386 kts | 197° |
| 2026-04-22 08:19 | -27.82317 | 153.04216 | 15664 ft | 389 kts | 199° |
| 2026-04-22 08:19 | -27.84880 | 153.03179 | 16381 ft | 392 kts | 201° |
| 2026-04-22 08:19 | -27.87427 | 153.02049 | 17049 ft | 395 kts | 202° |
| 2026-04-22 08:19 | -27.89991 | 153.00887 | 17691 ft | 398 kts | 202° |
| 2026-04-22 08:20 | -27.92580 | 152.99722 | 18312 ft | 401 kts | 202° |
| 2026-04-22 08:20 | -27.95192 | 152.98559 | 18901 ft | 404 kts | 202° |
| 2026-04-22 08:20 | -27.97788 | 152.97416 | 19423 ft | 407 kts | 202° |
| 2026-04-22 08:20 | -28.00444 | 152.96252 | 19933 ft | 411 kts | 202° |
| 2026-04-22 08:21 | -28.03148 | 152.95069 | 20502 ft | 412 kts | 202° |
| 2026-04-22 08:21 | -28.05824 | 152.93898 | 21045 ft | 413 kts | 202° |
| 2026-04-22 08:21 | -28.08475 | 152.92735 | 21436 ft | 417 kts | 202° |
| 2026-04-22 08:21 | -28.11195 | 152.91534 | 21835 ft | 420 kts | 203° |
| 2026-04-22 08:22 | -28.13916 | 152.90326 | 22268 ft | 422 kts | 203° |
| 2026-04-22 08:22 | -28.16664 | 152.89102 | 22700 ft | 424 kts | 203° |
| 2026-04-22 08:22 | -28.19418 | 152.87875 | 23068 ft | 426 kts | 203° |
| 2026-04-22 08:22 | -28.22184 | 152.86642 | 23417 ft | 428 kts | 203° |
| 2026-04-22 08:23 | -28.24962 | 152.85409 | 23773 ft | 430 kts | 203° |
| 2026-04-22 08:23 | -28.27761 | 152.84166 | 24120 ft | 432 kts | 203° |
| 2026-04-22 08:23 | -28.30566 | 152.82914 | 24449 ft | 433 kts | 204° |
| 2026-04-22 08:23 | -28.33338 | 152.81662 | 24729 ft | 436 kts | 204° |
| 2026-04-22 08:24 | -28.36138 | 152.80405 | 25417 ft | 426 kts | 204° |
| 2026-04-22 08:24 | -28.38857 | 152.79191 | 26408 ft | 411 kts | 204° |
| 2026-04-22 08:24 | -28.41468 | 152.78028 | 27382 ft | 398 kts | 204° |
| 2026-04-22 08:24 | -28.44042 | 152.76878 | 27766 ft | 399 kts | 205° |
| 2026-04-22 08:25 | -28.46648 | 152.75708 | 27943 ft | 404 kts | 205° |
| 2026-04-22 08:25 | -28.49277 | 152.74526 | 28179 ft | 407 kts | 205° |
| 2026-04-22 08:25 | -28.51914 | 152.73342 | 28478 ft | 408 kts | 205° |
| 2026-04-22 08:25 | -28.54559 | 152.72155 | 28785 ft | 409 kts | 205° |
| 2026-04-22 08:26 | -28.57217 | 152.70963 | 29079 ft | 410 kts | 205° |
| 2026-04-22 08:26 | -28.59872 | 152.69771 | 29334 ft | 411 kts | 205° |
| 2026-04-22 08:26 | -28.62505 | 152.68588 | 29575 ft | 413 kts | 205° |
| 2026-04-22 08:26 | -28.65184 | 152.67385 | 29809 ft | 414 kts | 205° |
| 2026-04-22 08:27 | -28.67873 | 152.66176 | 30038 ft | 415 kts | 205° |
| 2026-04-22 08:27 | -28.70561 | 152.64965 | 30250 ft | 416 kts | 205° |
| 2026-04-22 08:27 | -28.73255 | 152.63753 | 30583 ft | 415 kts | 205° |
| 2026-04-22 08:27 | -28.75926 | 152.62550 | 30938 ft | 412 kts | 205° |
| 2026-04-22 08:28 | -28.78587 | 152.61351 | 31253 ft | 411 kts | 205° |
| 2026-04-22 08:28 | -28.81245 | 152.60152 | 31542 ft | 410 kts | 206° |
| 2026-04-22 08:28 | -28.83900 | 152.58953 | 31811 ft | 410 kts | 206° |
| 2026-04-22 08:28 | -28.86482 | 152.57625 | 32120 ft | 406 kts | 211° |
| 2026-04-22 08:29 | -28.88983 | 152.56138 | 32484 ft | 404 kts | 211° |
| 2026-04-22 08:29 | -28.91469 | 152.54645 | 32878 ft | 402 kts | 212° |
| 2026-04-22 08:29 | -28.93928 | 152.53166 | 33229 ft | 400 kts | 212° |
| 2026-04-22 08:29 | -28.96393 | 152.51683 | 33505 ft | 400 kts | 212° |
| 2026-04-22 08:30 | -28.98859 | 152.50206 | 33738 ft | 401 kts | 212° |
| 2026-04-22 08:30 | -29.01332 | 152.48730 | 33991 ft | 401 kts | 212° |
| 2026-04-22 08:30 | -29.03804 | 152.47259 | 34315 ft | 399 kts | 212° |
| 2026-04-22 08:30 | -29.06265 | 152.45794 | 34622 ft | 398 kts | 212° |
| 2026-04-22 08:31 | -29.08710 | 152.44338 | 34928 ft | 396 kts | 212° |
| 2026-04-22 08:31 | -29.11152 | 152.42882 | 35179 ft | 396 kts | 212° |
| 2026-04-22 08:31 | -29.16039 | 152.39966 | 35720 ft | 394 kts | 212° |
| 2026-04-22 08:32 | -29.18468 | 152.38518 | 36028 ft | 392 kts | 212° |
| 2026-04-22 08:32 | -29.20891 | 152.37076 | 36235 ft | 393 kts | 211° |
| 2026-04-22 08:32 | -29.23395 | 152.35815 | 36448 ft | 396 kts | 205° |
| 2026-04-22 08:32 | -29.25964 | 152.34766 | 36662 ft | 396 kts | 204° |
| 2026-04-22 08:33 | -29.28565 | 152.33737 | 36894 ft | 395 kts | 204° |
| 2026-04-22 08:33 | -29.31153 | 152.32718 | 37219 ft | 392 kts | 205° |
| 2026-04-22 08:33 | -29.33725 | 152.31696 | 37547 ft | 388 kts | 205° |
| 2026-04-22 08:33 | -29.36269 | 152.30675 | 37776 ft | 387 kts | 205° |
| 2026-04-22 08:34 | -29.38811 | 152.29651 | 37941 ft | 387 kts | 205° |
| 2026-04-22 08:34 | -29.41353 | 152.28618 | 38096 ft | 388 kts | 205° |
| 2026-04-22 08:34 | -29.43894 | 152.27585 | 38227 ft | 388 kts | 205° |
| 2026-04-22 08:35 | -29.49009 | 152.25498 | 38247 ft | 391 kts | 205° |
| 2026-04-22 08:35 | -29.54130 | 152.23408 | 38243 ft | 388 kts | 205° |
| 2026-04-22 08:36 | -29.59205 | 152.21337 | 38251 ft | 386 kts | 205° |
| 2026-04-22 08:36 | -29.64222 | 152.19285 | 38254 ft | 384 kts | 205° |
| 2026-04-22 08:37 | -29.69252 | 152.17223 | 38257 ft | 383 kts | 205° |
| 2026-04-22 08:37 | -29.74281 | 152.15159 | 38242 ft | 383 kts | 205° |
| 2026-04-22 08:38 | -29.79300 | 152.13099 | 38245 ft | 383 kts | 205° |
| 2026-04-22 08:38 | -29.84302 | 152.11044 | 38266 ft | 384 kts | 205° |
| 2026-04-22 08:39 | -29.89356 | 152.08964 | 38269 ft | 386 kts | 205° |
| 2026-04-22 08:39 | -29.94430 | 152.06874 | 38265 ft | 387 kts | 205° |
| 2026-04-22 08:40 | -29.99515 | 152.04776 | 38273 ft | 388 kts | 205° |
| 2026-04-22 08:40 | -30.04622 | 152.02668 | 38265 ft | 390 kts | 205° |
| 2026-04-22 08:41 | -30.09726 | 152.00556 | 38263 ft | 389 kts | 205° |
| 2026-04-22 08:41 | -30.14792 | 151.98463 | 38266 ft | 389 kts | 205° |
| 2026-04-22 08:42 | -30.19887 | 151.96354 | 38265 ft | 388 kts | 205° |
| 2026-04-22 08:42 | -30.24967 | 151.94246 | 38263 ft | 387 kts | 205° |
| 2026-04-22 08:43 | -30.30036 | 151.92142 | 38265 ft | 387 kts | 205° |
| 2026-04-22 08:43 | -30.34232 | 151.90364 | 38273 ft | 385 kts | 206° |
| 2026-04-22 08:44 | -30.39183 | 151.88064 | 38276 ft | 383 kts | 207° |
| 2026-04-22 08:44 | -30.44917 | 151.85353 | 38277 ft | 382 kts | 207° |
| 2026-04-22 08:45 | -30.49044 | 151.83415 | 38276 ft | 383 kts | 207° |
| 2026-04-22 08:45 | -30.53995 | 151.81095 | 38296 ft | 389 kts | 207° |
| 2026-04-22 08:46 | -30.59061 | 151.78724 | 38294 ft | 395 kts | 207° |
| 2026-04-22 08:46 | -30.64194 | 151.76324 | 38288 ft | 398 kts | 207° |
| 2026-04-22 08:47 | -30.69335 | 151.73918 | 38280 ft | 399 kts | 207° |
| 2026-04-22 08:47 | -30.74489 | 151.71503 | 38281 ft | 399 kts | 207° |
| 2026-04-22 08:48 | -30.79631 | 151.69089 | 38287 ft | 398 kts | 206° |
| 2026-04-22 08:48 | -30.84770 | 151.66674 | 38284 ft | 397 kts | 206° |
| 2026-04-22 08:49 | -30.89878 | 151.64271 | 38285 ft | 396 kts | 206° |
| 2026-04-22 08:49 | -30.94938 | 151.61888 | 38297 ft | 394 kts | 207° |
| 2026-04-22 08:50 | -31.00024 | 151.59488 | 38295 ft | 394 kts | 206° |
| 2026-04-22 08:50 | -31.05102 | 151.57090 | 38296 ft | 393 kts | 206° |
| 2026-04-22 08:51 | -31.10162 | 151.54698 | 38293 ft | 392 kts | 206° |
| 2026-04-22 08:51 | -31.15210 | 151.52309 | 38295 ft | 391 kts | 206° |
| 2026-04-22 08:52 | -31.20259 | 151.49917 | 38292 ft | 391 kts | 206° |
| 2026-04-22 08:52 | -31.25298 | 151.47525 | 38294 ft | 390 kts | 206° |
| 2026-04-22 08:53 | -31.30338 | 151.45132 | 38298 ft | 390 kts | 206° |
| 2026-04-22 08:53 | -31.35371 | 151.42738 | 38293 ft | 390 kts | 206° |
| 2026-04-22 08:54 | -31.40367 | 151.40382 | 38295 ft | 390 kts | 206° |
| 2026-04-22 08:54 | -31.45450 | 151.38119 | 38302 ft | 390 kts | 205° |
| 2026-04-22 08:55 | -31.50539 | 151.35872 | 38305 ft | 390 kts | 205° |
| 2026-04-22 08:55 | -31.55619 | 151.33615 | 38309 ft | 390 kts | 205° |
| 2026-04-22 08:56 | -31.60693 | 151.31348 | 38303 ft | 390 kts | 205° |
| 2026-04-22 08:56 | -31.65762 | 151.29079 | 38302 ft | 390 kts | 205° |
| 2026-04-22 08:57 | -31.70798 | 151.26822 | 38305 ft | 390 kts | 205° |
| 2026-04-22 08:57 | -31.75867 | 151.24548 | 38302 ft | 391 kts | 205° |
| 2026-04-22 08:58 | -31.80949 | 151.22266 | 38312 ft | 391 kts | 205° |
| 2026-04-22 08:58 | -31.86050 | 151.19971 | 37888 ft | 397 kts | 205° |
| 2026-04-22 08:58 | -31.88619 | 151.18815 | 37373 ft | 394 kts | 205° |
| 2026-04-22 08:59 | -31.91164 | 151.17670 | 36836 ft | 391 kts | 205° |
| 2026-04-22 08:59 | -31.93704 | 151.16526 | 36224 ft | 391 kts | 205° |
| 2026-04-22 08:59 | -31.96256 | 151.15379 | 35564 ft | 392 kts | 205° |
| 2026-04-22 08:59 | -31.98813 | 151.14233 | 34891 ft | 394 kts | 205° |
| 2026-04-22 09:00 | -32.01353 | 151.13097 | 34543 ft | 381 kts | 204° |
| 2026-04-22 09:00 | -32.03769 | 151.12019 | 34399 ft | 365 kts | 204° |
| 2026-04-22 09:00 | -32.06125 | 151.10965 | 33962 ft | 362 kts | 204° |
| 2026-04-22 09:00 | -32.08530 | 151.09882 | 32831 ft | 377 kts | 204° |
| 2026-04-22 09:01 | -32.11013 | 151.08761 | 31978 ft | 385 kts | 203° |
| 2026-04-22 09:01 | -32.13479 | 151.07650 | 31492 ft | 383 kts | 202° |
| 2026-04-22 09:01 | -32.15987 | 151.06523 | 31102 ft | 378 kts | 202° |
| 2026-04-22 09:01 | -32.18397 | 151.05440 | 30685 ft | 374 kts | 202° |
| 2026-04-22 09:02 | -32.20855 | 151.04334 | 30199 ft | 372 kts | 202° |
| 2026-04-22 09:02 | -32.23263 | 151.03249 | 29707 ft | 370 kts | 202° |
| 2026-04-22 09:02 | -32.25629 | 151.02182 | 29226 ft | 367 kts | 201° |
| 2026-04-22 09:02 | -32.28007 | 151.01108 | 28701 ft | 366 kts | 201° |
| 2026-04-22 09:03 | -32.30384 | 151.00035 | 28176 ft | 364 kts | 201° |
| 2026-04-22 09:03 | -32.32753 | 150.98965 | 27701 ft | 362 kts | 201° |
| 2026-04-22 09:03 | -32.35098 | 150.97905 | 27150 ft | 361 kts | 201° |
| 2026-04-22 09:03 | -32.37446 | 150.96843 | 26705 ft | 358 kts | 200° |
| 2026-04-22 09:04 | -32.39769 | 150.95791 | 26260 ft | 355 kts | 200° |
| 2026-04-22 09:04 | -32.42065 | 150.94752 | 25836 ft | 353 kts | 200° |
| 2026-04-22 09:04 | -32.44347 | 150.93718 | 25402 ft | 350 kts | 200° |
| 2026-04-22 09:04 | -32.46615 | 150.92694 | 24975 ft | 347 kts | 199° |
| 2026-04-22 09:05 | -32.48938 | 150.91995 | 24553 ft | 344 kts | 188° |
| 2026-04-22 09:05 | -32.51278 | 150.91719 | 24175 ft | 340 kts | 182° |
| 2026-04-22 09:05 | -32.53630 | 150.91819 | 23776 ft | 338 kts | 174° |
| 2026-04-22 09:05 | -32.55951 | 150.92211 | 23384 ft | 336 kts | 173° |
| 2026-04-22 09:06 | -32.58247 | 150.92642 | 22971 ft | 333 kts | 172° |
| 2026-04-22 09:06 | -32.60531 | 150.93074 | 22570 ft | 331 kts | 172° |
| 2026-04-22 09:06 | -32.62796 | 150.93498 | 22162 ft | 329 kts | 172° |
| 2026-04-22 09:06 | -32.65052 | 150.93914 | 21752 ft | 327 kts | 172° |
| 2026-04-22 09:07 | -32.67294 | 150.94323 | 21358 ft | 325 kts | 172° |
| 2026-04-22 09:07 | -32.69522 | 150.94729 | 20954 ft | 323 kts | 171° |
| 2026-04-22 09:07 | -32.71746 | 150.95135 | 20552 ft | 322 kts | 172° |
| 2026-04-22 09:07 | -32.73935 | 150.95528 | 20283 ft | 318 kts | 172° |
| 2026-04-22 09:08 | -32.76123 | 150.95921 | 19933 ft | 318 kts | 171° |
| 2026-04-22 09:08 | -32.78338 | 150.96322 | 19542 ft | 328 kts | 171° |
| 2026-04-22 09:08 | -32.80634 | 150.96735 | 19125 ft | 338 kts | 171° |
| 2026-04-22 09:08 | -32.82958 | 150.97149 | 18675 ft | 337 kts | 171° |
| 2026-04-22 09:09 | -32.85269 | 150.97560 | 18252 ft | 334 kts | 171° |
| 2026-04-22 09:09 | -32.87533 | 150.97962 | 17824 ft | 332 kts | 171° |
| 2026-04-22 09:09 | -32.89810 | 150.98367 | 17413 ft | 330 kts | 169° |
| 2026-04-22 09:09 | -32.92073 | 150.98770 | 16900 ft | 330 kts | 169° |
| 2026-04-22 09:10 | -32.94371 | 150.99175 | 16265 ft | 334 kts | 170° |
| 2026-04-22 09:10 | -32.96669 | 150.99578 | 15778 ft | 333 kts | 170° |
| 2026-04-22 09:10 | -32.98957 | 150.99982 | 15348 ft | 331 kts | 169° |
| 2026-04-22 09:10 | -33.01226 | 151.00384 | 14918 ft | 328 kts | 169° |
| 2026-04-22 09:11 | -33.03478 | 151.00784 | 14496 ft | 326 kts | 169° |
| 2026-04-22 09:11 | -33.05717 | 151.01183 | 14076 ft | 324 kts | 169° |
| 2026-04-22 09:11 | -33.07932 | 151.01578 | 13672 ft | 321 kts | 169° |
| 2026-04-22 09:11 | -33.10137 | 151.01972 | 13268 ft | 319 kts | 169° |
| 2026-04-22 09:12 | -33.12325 | 151.02364 | 12863 ft | 317 kts | 169° |
| 2026-04-22 09:12 | -33.14504 | 151.02753 | 12463 ft | 315 kts | 169° |
| 2026-04-22 09:12 | -33.16672 | 151.03141 | 12062 ft | 314 kts | 169° |
| 2026-04-22 09:12 | -33.18822 | 151.03526 | 11649 ft | 312 kts | 169° |
| 2026-04-22 09:13 | -33.20959 | 151.03908 | 11385 ft | 309 kts | 169° |
| 2026-04-22 09:13 | -33.23078 | 151.04289 | 11126 ft | 307 kts | 169° |
| 2026-04-22 09:13 | -33.25181 | 151.04675 | 10752 ft | 304 kts | 169° |
| 2026-04-22 09:13 | -33.27270 | 151.05074 | 10370 ft | 302 kts | 169° |
| 2026-04-22 09:14 | -33.29322 | 151.05469 | 10232 ft | 293 kts | 169° |
| 2026-04-22 09:14 | -33.31306 | 151.05851 | 10085 ft | 285 kts | 169° |
| 2026-04-22 09:14 | -33.33236 | 151.06221 | 9900 ft | 278 kts | 169° |
| 2026-04-22 09:14 | -33.35144 | 151.06585 | 9583 ft | 277 kts | 169° |
| 2026-04-22 09:15 | -33.37047 | 151.06947 | 9245 ft | 276 kts | 170° |
| 2026-04-22 09:15 | -33.38908 | 151.07271 | 8997 ft | 272 kts | 171° |
| 2026-04-22 09:15 | -33.40786 | 151.07584 | 8674 ft | 271 kts | 171° |
| 2026-04-22 09:15 | -33.42653 | 151.07898 | 8364 ft | 270 kts | 171° |
| 2026-04-22 09:16 | -33.44514 | 151.08214 | 8042 ft | 270 kts | 171° |
| 2026-04-22 09:16 | -33.46372 | 151.08522 | 7741 ft | 269 kts | 171° |
| 2026-04-22 09:16 | -33.48226 | 151.08832 | 7424 ft | 270 kts | 171° |
| 2026-04-22 09:16 | -33.50085 | 151.09146 | 7118 ft | 268 kts | 171° |
| 2026-04-22 09:17 | -33.51934 | 151.09459 | 6789 ft | 268 kts | 171° |
| 2026-04-22 09:17 | -33.53770 | 151.09770 | 6491 ft | 266 kts | 171° |
| 2026-04-22 09:17 | -33.55603 | 151.10080 | 6186 ft | 264 kts | 171° |
| 2026-04-22 09:17 | -33.57416 | 151.10386 | 5891 ft | 263 kts | 171° |
| 2026-04-22 09:18 | -33.59219 | 151.10690 | 5577 ft | 260 kts | 171° |
| 2026-04-22 09:18 | -33.61009 | 151.10996 | 5294 ft | 258 kts | 171° |
| 2026-04-22 09:18 | -33.62782 | 151.11299 | 4997 ft | 258 kts | 171° |
| 2026-04-22 09:18 | -33.64567 | 151.11602 | 4686 ft | 258 kts | 171° |
| 2026-04-22 09:19 | -33.66337 | 151.11904 | 4381 ft | 257 kts | 171° |
| 2026-04-22 09:19 | -33.68071 | 151.12200 | 4244 ft | 250 kts | 171° |
| 2026-04-22 09:19 | -33.69761 | 151.12487 | 4105 ft | 242 kts | 171° |
| 2026-04-22 09:19 | -33.71386 | 151.12762 | 3998 ft | 231 kts | 171° |
| 2026-04-22 09:20 | -33.72943 | 151.13097 | 3773 ft | 223 kts | 167° |
| 2026-04-22 09:20 | -33.74413 | 151.13480 | 3569 ft | 208 kts | 166° |
| 2026-04-22 09:20 | -33.75780 | 151.13829 | 3419 ft | 191 kts | 167° |
| 2026-04-22 09:20 | -33.76997 | 151.14137 | 3447 ft | 169 kts | 167° |
| 2026-04-22 09:21 | -33.78121 | 151.14428 | 3391 ft | 165 kts | 167° |
| 2026-04-22 09:21 | -33.79267 | 151.14726 | 3186 ft | 172 kts | 167° |
| 2026-04-22 09:21 | -33.80455 | 151.15037 | 2930 ft | 176 kts | 167° |
| 2026-04-22 09:21 | -33.81634 | 151.15344 | 2716 ft | 170 kts | 166° |
| 2026-04-22 09:22 | -33.82784 | 151.15644 | 2483 ft | 170 kts | 167° |
| 2026-04-22 09:22 | -33.83948 | 151.15949 | 2266 ft | 173 kts | 166° |
| 2026-04-22 09:22 | -33.85133 | 151.16258 | 2032 ft | 174 kts | 167° |
| 2026-04-22 09:22 | -33.86296 | 151.16561 | 1799 ft | 166 kts | 167° |
| 2026-04-22 09:23 | -33.87378 | 151.16843 | 1615 ft | 152 kts | 166° |
| 2026-04-22 09:23 | -33.88378 | 151.17104 | 1385 ft | 144 kts | 166° |
| 2026-04-22 09:23 | -33.89351 | 151.17359 | 1199 ft | 142 kts | 166° |
| 2026-04-22 09:23 | -33.90317 | 151.17612 | 1025 ft | 143 kts | 166° |
| 2026-04-22 09:24 | -33.91276 | 151.17867 | 843 ft | 142 kts | 166° |
| 2026-04-22 09:24 | -33.92251 | 151.18127 | 660 ft | 144 kts | 166° |
| 2026-04-22 09:24 | -33.93242 | 151.18381 | 455 ft | 147 kts | 166° |
| 2026-04-22 09:24 | -33.94226 | 151.18635 | 264 ft | 146 kts | 166° |
| 2026-04-22 09:25 | -33.95222 | 151.18897 | 38 ft | 146 kts | 166° |
| 2026-04-22 09:25 | -33.96104 | 151.19124 | 27 ft | 103 kts | 167° |
| 2026-04-22 09:25 | -33.96597 | 151.19212 | 25 ft | 42 kts | 196° |
| 2026-04-22 09:25 | -33.96709 | 151.19139 | 27 ft | 12 kts | 246° |
| 2026-04-22 09:26 | -33.96668 | 151.19071 | 29 ft | 8 kts | 341° |
| 2026-04-22 09:26 | -33.96658 | 151.19068 | 29 ft | 0 kts | 346° |
| 2026-04-22 09:27 | -33.96644 | 151.19064 | 29 ft | 6 kts | 346° |
| 2026-04-22 09:28 | -33.96600 | 151.19051 | 29 ft | 13 kts | 346° |
| 2026-04-22 09:28 | -33.96478 | 151.19020 | 29 ft | 22 kts | 348° |
| 2026-04-22 09:28 | -33.96302 | 151.18974 | 29 ft | 27 kts | 347° |
| 2026-04-22 09:28 | -33.96121 | 151.18928 | 29 ft | 26 kts | 348° |
| 2026-04-22 09:29 | -33.95955 | 151.18885 | 29 ft | 24 kts | 348° |
| 2026-04-22 09:29 | -33.95796 | 151.18844 | 29 ft | 23 kts | 348° |
| 2026-04-22 09:29 | -33.95643 | 151.18804 | 29 ft | 22 kts | 347° |
| 2026-04-22 09:29 | -33.95495 | 151.18766 | 29 ft | 22 kts | 347° |
| 2026-04-22 09:30 | -33.95351 | 151.18728 | 29 ft | 21 kts | 347° |
| 2026-04-22 09:30 | -33.95222 | 151.18658 | 29 ft | 20 kts | 323° |
| 2026-04-22 09:30 | -33.95125 | 151.18540 | 29 ft | 20 kts | 301° |
| 2026-04-22 09:30 | -33.95124 | 151.18382 | 29 ft | 19 kts | 257° |
| 2026-04-22 09:31 | -33.95151 | 151.18229 | 29 ft | 18 kts | 258° |
| 2026-04-22 09:31 | -33.95178 | 151.18083 | 29 ft | 18 kts | 258° |
| 2026-04-22 09:31 | -33.95149 | 151.17956 | 29 ft | 17 kts | 338° |
| 2026-04-22 09:31 | -33.95035 | 151.17926 | 29 ft | 17 kts | 347° |
| 2026-04-22 09:32 | -33.94925 | 151.17897 | 29 ft | 16 kts | 347° |
| 2026-04-22 09:32 | -33.94819 | 151.17870 | 29 ft | 15 kts | 347° |
| 2026-04-22 09:32 | -33.94718 | 151.17843 | 29 ft | 15 kts | 348° |
| 2026-04-22 09:32 | -33.94620 | 151.17819 | 29 ft | 14 kts | 348° |
| 2026-04-22 09:33 | -33.94527 | 151.17810 | 29 ft | 13 kts | 25° |
| 2026-04-22 09:33 | -33.94471 | 151.17894 | 29 ft | 13 kts | 40° |
| 2026-04-22 09:33 | -33.94381 | 151.17903 | 29 ft | 15 kts | 348° |
| 2026-04-22 09:33 | -33.94268 | 151.17874 | 29 ft | 18 kts | 347° |
| 2026-04-22 09:34 | -33.94130 | 151.17838 | 28 ft | 22 kts | 348° |
| 2026-04-22 09:34 | -33.93968 | 151.17797 | 28 ft | 25 kts | 347° |
| 2026-04-22 09:34 | -33.93795 | 151.17768 | 29 ft | 24 kts | 13° |
| 2026-04-22 09:35 | -33.93664 | 151.17808 | 29 ft | 2 kts | 29° |
| 2026-04-22 09:35 | -33.93659 | 151.17826 | 29 ft | 2 kts | 81° |
| 2026-04-22 09:35 | -33.93659 | 151.17846 | 29 ft | 2 kts | 91° |
| 2026-04-22 09:35 | -33.93659 | 151.17866 | 29 ft | 2 kts | 90° |
| 2026-04-22 09:36 | -33.93659 | 151.17881 | 29 ft | 1 kts | 90° |
| 2026-04-22 09:36 | -33.93659 | 151.17882 | 29 ft | 0 kts | 90° |